Time;durP1;ratioP1;P1;durP2;ratioP2;P2;SDS_P1;SDS_P2;PMS_P1;PMS_P2;Temp;Humidity;BMP_temperature;BMP_pressure;BME280_temperature;BME280_humidity;BME280_pressure;Samples;Min_cycle;Max_cycle;Signal;HPM_P1;HPM_P2
2023/04/23 00:01:48;;;;;;;20.90;11.43;;;;;;;14.18;44.26;98911.00;4335299;33;32064;-90
2023/04/23 00:04:18;;;;;;;18.25;12.32;;;;;;;14.04;44.87;98909.34;4334229;33;33015;-89
2023/04/23 00:06:46;;;;;;;19.90;11.57;;;;;;;14.07;45.29;98909.31;4335816;33;32579;-94
2023/04/23 00:09:15;;;;;;;18.48;11.30;;;;;;;14.09;46.35;98909.28;4350279;33;34283;-83
2023/04/23 00:11:43;;;;;;;17.42;10.30;;;;;;;14.01;45.72;98911.94;4349246;32;33287;-83
2023/04/23 00:14:11;;;;;;;19.70;10.95;;;;;;;13.92;45.35;98917.22;4345684;33;34222;-89
2023/04/23 00:16:39;;;;;;;19.55;10.98;;;;;;;13.86;45.39;98914.62;4348007;32;35010;-95
2023/04/23 00:19:07;;;;;;;20.45;11.12;;;;;;;13.81;46.10;98917.25;4348034;33;34236;-82
2023/04/23 00:21:35;;;;;;;18.45;10.43;;;;;;;13.94;45.29;98905.06;4347180;32;33527;-85
2023/04/23 00:24:02;;;;;;;18.05;10.50;;;;;;;13.86;45.34;98918.13;4332726;32;32140;-84
2023/04/23 00:26:30;;;;;;;20.67;10.80;;;;;;;13.75;45.40;98919.00;4323582;33;33796;-83
2023/04/23 00:28:57;;;;;;;19.17;10.45;;;;;;;13.81;45.46;98904.22;4346993;32;34656;-84
2023/04/23 00:31:26;;;;;;;19.75;11.50;;;;;;;13.82;45.68;98905.09;4345789;32;34314;-89
2023/04/23 00:33:54;;;;;;;18.05;10.95;;;;;;;13.87;45.70;98911.16;4346564;32;33515;-85
2023/04/23 00:36:22;;;;;;;16.23;10.45;;;;;;;13.82;45.92;98907.69;4334081;33;34156;-84
2023/04/23 00:38:50;;;;;;;19.85;11.60;;;;;;;13.69;46.53;98898.22;4348182;32;33945;-96
2023/04/23 00:41:18;;;;;;;20.48;11.80;;;;;;;13.76;45.87;98911.22;4345664;33;33873;-92
2023/04/23 00:43:47;;;;;;;17.42;11.00;;;;;;;13.59;46.04;98903.44;4335004;32;33941;-86
2023/04/23 00:46:16;;;;;;;18.98;9.95;;;;;;;13.60;45.98;98899.12;4348205;32;33614;-91
2023/04/23 00:48:45;;;;;;;16.10;9.52;;;;;;;13.66;45.36;98900.84;4330087;33;32086;-95
2023/04/23 00:51:12;;;;;;;16.80;9.88;;;;;;;13.58;45.61;98900.84;4349279;32;33254;-84
2023/04/23 00:53:40;;;;;;;13.52;10.05;;;;;;;13.66;46.28;98908.66;4351491;32;34741;-84
2023/04/23 00:56:08;;;;;;;15.68;9.13;;;;;;;13.66;46.72;98900.84;4349921;33;35151;-95
2023/04/23 00:58:35;;;;;;;15.70;9.77;;;;;;;13.68;47.65;98904.31;4337014;33;34305;-84
2023/04/23 01:01:03;;;;;;;15.00;9.30;;;;;;;13.57;47.36;98905.22;4326161;33;33592;-94
2023/04/23 01:03:35;;;;;;;16.25;9.73;;;;;;;13.56;47.40;98900.88;4324670;33;33844;-83
2023/04/23 01:06:03;;;;;;;13.95;9.45;;;;;;;13.57;47.49;98907.81;4335297;33;33790;-83
2023/04/23 01:08:31;;;;;;;14.77;10.35;;;;;;;13.56;47.13;98902.59;4333561;33;33934;-84
2023/04/23 01:10:59;;;;;;;18.58;10.95;;;;;;;13.73;46.63;98899.94;4348871;33;33223;-96
2023/04/23 01:13:28;;;;;;;16.50;10.25;;;;;;;13.53;46.94;98903.50;4348709;33;34070;-83
2023/04/23 01:15:56;;;;;;;18.30;10.70;;;;;;;13.43;46.87;98903.50;4348955;32;34219;-82
2023/04/23 01:18:24;;;;;;;14.25;9.23;;;;;;;13.33;47.47;98900.94;4346576;32;33726;-84
2023/04/23 01:20:51;;;;;;;19.55;10.40;;;;;;;13.38;47.33;98896.59;4349223;33;33615;-95
2023/04/23 01:23:19;;;;;;;13.77;9.43;;;;;;;13.27;47.66;98895.75;4347898;33;34541;-83
2023/04/23 01:25:46;;;;;;;17.55;9.48;;;;;;;13.24;47.64;98889.69;4348814;32;34978;-93
2023/04/23 01:28:14;;;;;;;15.32;9.93;;;;;;;13.26;47.82;98898.34;4331225;33;34138;-83
2023/04/23 01:30:42;;;;;;;15.48;9.70;;;;;;;13.28;48.11;98896.59;4340475;33;33332;-83
2023/04/23 01:33:10;;;;;;;18.42;10.15;;;;;;;13.25;47.98;98888.81;4350437;32;35565;-92
2023/04/23 01:35:40;;;;;;;15.85;10.13;;;;;;;13.28;47.81;98892.25;4354343;32;34042;-83
2023/04/23 01:38:09;;;;;;;17.87;9.80;;;;;;;13.36;47.76;98889.63;4349997;33;33057;-84
2023/04/23 01:40:37;;;;;;;12.88;9.85;;;;;;;13.30;47.75;98893.16;4333950;33;33066;-83
2023/04/23 01:43:07;;;;;;;16.40;9.32;;;;;;;13.21;48.26;98892.25;4348984;32;33792;-88
2023/04/23 01:45:35;;;;;;;17.02;9.77;;;;;;;13.08;48.58;98894.03;4351308;33;34142;-84
2023/04/23 01:48:03;;;;;;;14.23;8.98;;;;;;;13.20;47.58;98887.91;4350049;32;33821;-86
2023/04/23 01:50:30;;;;;;;16.67;9.88;;;;;;;13.12;48.33;98891.41;4346220;32;34300;-85
2023/04/23 01:52:58;;;;;;;14.23;9.48;;;;;;;13.20;48.01;98890.53;4344050;32;34095;-84
2023/04/23 01:55:26;;;;;;;14.07;9.63;;;;;;;12.97;48.55;98890.56;4336799;32;34026;-91
2023/04/23 01:57:53;;;;;;;14.18;9.93;;;;;;;13.04;48.31;98892.28;4350046;32;32710;-84
2023/04/23 02:00:21;;;;;;;18.77;10.68;;;;;;;13.09;48.51;98882.72;4336396;33;33801;-85
2023/04/23 02:02:51;;;;;;;18.23;10.07;;;;;;;12.92;48.58;98885.38;4349435;32;34080;-88
2023/04/23 02:05:19;;;;;;;17.50;9.95;;;;;;;12.91;49.09;98884.47;4352660;33;34186;-85
2023/04/23 02:07:48;;;;;;;15.90;10.68;;;;;;;12.83;48.66;98881.03;4351765;33;34054;-84
2023/04/23 02:10:17;;;;;;;15.07;9.80;;;;;;;12.80;48.58;98882.75;4349079;33;33788;-92
2023/04/23 02:12:45;;;;;;;17.45;10.35;;;;;;;12.70;49.45;98881.91;4342124;32;34031;-96
2023/04/23 02:15:14;;;;;;;17.10;10.15;;;;;;;12.64;49.83;98872.37;4346820;32;34246;-93
2023/04/23 02:17:42;;;;;;;15.18;10.20;;;;;;;12.75;49.76;98885.38;4345815;32;34293;-84
2023/04/23 02:20:10;;;;;;;15.82;9.82;;;;;;;12.76;49.48;98878.44;4334850;33;34513;-84
2023/04/23 02:22:39;;;;;;;12.10;9.48;;;;;;;12.91;49.34;98876.69;4345834;32;33853;-94
2023/04/23 02:25:08;;;;;;;16.00;10.75;;;;;;;12.77;49.02;98880.19;4345334;32;33768;-83
2023/04/23 02:27:35;;;;;;;15.25;9.95;;;;;;;12.79;48.92;98871.50;4341635;32;34918;-83
2023/04/23 02:30:03;;;;;;;14.82;9.80;;;;;;;12.71;48.86;98872.37;4345306;32;33437;-82
2023/04/23 02:32:31;;;;;;;13.62;9.25;;;;;;;12.82;48.87;98870.63;4344951;32;34061;-86
2023/04/23 02:35:00;;;;;;;17.25;9.73;;;;;;;12.87;48.57;98874.09;4342698;32;34077;-94
2023/04/23 02:37:28;;;;;;;11.07;8.38;;;;;;;13.00;48.11;98870.63;4345703;33;34070;-91
2023/04/23 02:39:55;;;;;;;15.35;9.88;;;;;;;12.79;48.97;98870.63;4344368;32;33558;-85
2023/04/23 02:42:23;;;;;;;13.95;10.07;;;;;;;12.84;49.19;98874.09;4345706;33;34429;-83
2023/04/23 02:44:50;;;;;;;13.05;8.85;;;;;;;12.81;48.79;98861.97;4344090;32;33683;-82
2023/04/23 02:47:18;;;;;;;15.93;9.73;;;;;;;12.66;48.96;98869.78;4335089;32;33324;-82
2023/04/23 02:49:46;;;;;;;16.98;9.48;;;;;;;12.96;48.55;98857.63;4330503;32;34358;-86
2023/04/23 02:52:13;;;;;;;14.02;9.55;;;;;;;12.88;48.60;98860.25;4337684;32;34151;-82
2023/04/23 02:54:41;;;;;;;12.48;9.27;;;;;;;12.84;48.99;98866.28;4344227;32;33798;-83
2023/04/23 02:57:09;;;;;;;15.45;10.23;;;;;;;12.77;49.47;98859.38;4344862;32;33605;-94
2023/04/23 02:59:37;;;;;;;16.70;10.32;;;;;;;12.81;48.94;98859.38;4345698;33;33438;-83
2023/04/23 03:02:05;;;;;;;13.32;9.43;;;;;;;12.88;49.20;98860.25;4345074;32;34337;-83
2023/04/23 03:04:33;;;;;;;15.35;9.10;;;;;;;12.93;48.89;98863.69;4343449;32;33259;-83
2023/04/23 03:07:00;;;;;;;15.95;9.52;;;;;;;12.75;48.88;98858.50;4342795;32;34025;-84
2023/04/23 03:09:28;;;;;;;16.52;9.77;;;;;;;12.83;48.50;98859.34;4344760;33;33110;-90
2023/04/23 03:11:56;;;;;;;14.18;9.73;;;;;;;12.74;48.62;98854.19;4344464;32;33645;-91
2023/04/23 03:14:24;;;;;;;15.63;10.25;;;;;;;12.64;49.58;98851.56;4344725;32;35078;-83
2023/04/23 03:16:51;;;;;;;13.60;9.65;;;;;;;12.56;49.62;98858.50;4343843;32;33919;-88
2023/04/23 03:19:19;;;;;;;17.70;9.50;;;;;;;12.58;49.52;98855.94;4330456;32;32958;-92
2023/04/23 03:21:46;;;;;;;16.80;9.00;;;;;;;12.53;49.39;98858.50;4344534;32;34475;-82
2023/04/23 03:24:15;;;;;;;14.55;9.57;;;;;;;12.62;49.19;98861.12;4343621;32;34664;-94
2023/04/23 03:26:43;;;;;;;13.93;9.50;;;;;;;12.79;48.76;98853.28;4344698;32;34145;-86
2023/04/23 03:29:11;;;;;;;12.98;8.98;;;;;;;12.69;48.59;98855.88;4330918;33;34330;-89
2023/04/23 03:31:38;;;;;;;11.82;9.63;;;;;;;12.58;48.94;98854.19;4332657;33;33827;-82
2023/04/23 03:34:07;;;;;;;15.35;9.23;;;;;;;12.57;48.79;98855.03;4346283;32;34969;-82
2023/04/23 03:36:35;;;;;;;14.68;9.23;;;;;;;12.62;48.44;98853.31;4345836;32;33856;-94
2023/04/23 03:39:03;;;;;;;13.95;10.02;;;;;;;12.38;49.10;98859.34;4346058;32;33754;-95
2023/04/23 03:41:32;;;;;;;15.57;10.35;;;;;;;12.43;49.01;98855.94;4346102;32;33616;-84
2023/04/23 03:44:34;;;;;;;14.20;9.82;;;;;;;12.46;49.41;98861.97;4346297;32;34089;-89
2023/04/23 03:47:02;;;;;;;13.80;10.35;;;;;;;12.67;48.85;98868.91;4344601;32;34817;-84
2023/04/23 03:49:30;;;;;;;14.57;10.35;;;;;;;12.64;49.50;98861.97;4346163;33;34183;-83
2023/04/23 03:51:58;;;;;;;13.35;10.20;;;;;;;12.54;49.62;98857.66;4344433;33;34336;-93
2023/04/23 03:54:27;;;;;;;16.40;10.43;;;;;;;12.52;49.48;98861.97;4346241;33;34179;-87
2023/04/23 03:56:56;;;;;;;15.18;9.48;;;;;;;12.55;49.11;98861.97;4345478;33;33765;-88
2023/04/23 03:59:24;;;;;;;16.42;10.63;;;;;;;12.51;49.18;98862.00;4346436;33;33725;-84
2023/04/23 04:01:52;;;;;;;15.82;10.10;;;;;;;12.56;49.45;98861.09;4345873;33;34202;-83
2023/04/23 04:04:19;;;;;;;15.35;9.90;;;;;;;12.46;50.07;98859.38;4344691;33;34932;-90
2023/04/23 04:06:47;;;;;;;15.30;10.07;;;;;;;12.45;49.59;98868.03;4346157;33;33684;-83
2023/04/23 04:09:15;;;;;;;17.48;10.43;;;;;;;12.59;49.22;98866.31;4345416;33;34561;-89
2023/04/23 04:11:43;;;;;;;15.27;10.73;;;;;;;12.60;50.07;98864.56;4344349;33;33964;-84
2023/04/23 04:14:11;;;;;;;14.32;10.57;;;;;;;12.55;50.49;98871.53;4346157;33;35108;-83
2023/04/23 04:16:39;;;;;;;18.20;11.57;;;;;;;12.72;49.86;98871.50;4346224;33;33679;-87
2023/04/23 04:19:06;;;;;;;15.52;10.80;;;;;;;12.71;49.86;98868.03;4345830;32;34205;-85
2023/04/23 04:21:34;;;;;;;14.15;10.85;;;;;;;12.85;49.66;98875.84;4345009;33;34921;-87
2023/04/23 04:24:03;;;;;;;15.95;11.40;;;;;;;13.14;48.81;98874.06;4346463;32;33778;-84
2023/04/23 04:26:31;;;;;;;14.15;10.27;;;;;;;13.43;48.25;98873.13;4345001;33;34225;-83
2023/04/23 04:29:03;;;;;;;19.80;11.32;;;;;;;13.59;47.77;98881.75;4345379;33;33453;-83
2023/04/23 04:31:31;;;;;;;16.95;11.77;;;;;;;13.93;47.80;98881.59;4345877;33;33627;-84
2023/04/23 04:33:58;;;;;;;16.35;10.88;;;;;;;14.15;47.86;98880.59;4345559;33;34809;-94
2023/04/23 04:36:27;;;;;;;16.55;9.90;;;;;;;14.35;46.91;98876.09;4345113;33;33863;-84
2023/04/23 04:38:57;;;;;;;16.35;10.48;;;;;;;14.51;46.12;98876.91;4332954;33;33546;-88
2023/04/23 04:41:24;;;;;;;15.63;10.27;;;;;;;14.60;46.03;98879.44;4345690;33;33875;-83
2023/04/23 04:43:53;;;;;;;16.75;10.88;;;;;;;14.98;45.60;98878.22;4342762;33;34241;-96
2023/04/23 04:46:21;;;;;;;17.15;10.50;;;;;;;15.35;45.24;98883.09;4327884;33;34777;-82
2023/04/23 04:48:49;;;;;;;16.40;11.02;;;;;;;15.46;44.59;98881.22;4345711;33;34072;-84
2023/04/23 04:51:16;;;;;;;14.90;10.80;;;;;;;15.73;44.35;98874.81;4345828;33;33972;-92
2023/04/23 04:53:44;;;;;;;17.77;10.40;;;;;;;15.84;44.47;98882.53;4332871;33;34196;-93
2023/04/23 04:56:11;;;;;;;14.63;10.90;;;;;;;16.03;44.38;98883.16;4346076;33;34337;-82
2023/04/23 04:58:39;;;;;;;15.10;10.32;;;;;;;16.58;43.23;98882.31;4345555;33;34290;-92
2023/04/23 05:01:06;;;;;;;15.77;10.63;;;;;;;16.76;42.25;98886.41;4344211;33;34031;-83
2023/04/23 05:03:35;;;;;;;17.73;11.48;;;;;;;16.39;42.56;98886.09;4331805;33;34732;-94
2023/04/23 05:06:03;;;;;;;15.00;10.65;;;;;;;16.61;43.05;98884.88;4344008;33;33890;-87
2023/04/23 05:08:31;;;;;;;19.05;10.23;;;;;;;17.32;41.83;98886.31;4333258;33;33426;-82
2023/04/23 05:10:59;;;;;;;14.68;10.68;;;;;;;17.58;40.50;98888.41;4345639;33;34399;-83
2023/04/23 05:13:27;;;;;;;13.50;10.38;;;;;;;17.50;40.06;98891.16;4331798;33;32995;-84
2023/04/23 05:15:55;;;;;;;15.00;10.13;;;;;;;17.51;40.31;98888.53;4345698;33;34897;-84
2023/04/23 05:18:22;;;;;;;17.83;11.80;;;;;;;17.92;39.53;98879.00;4343024;33;33709;-87
2023/04/23 05:20:49;;;;;;;16.65;10.50;;;;;;;17.47;40.13;98886.00;4345134;33;34022;-91
2023/04/23 05:23:18;;;;;;;16.10;9.98;;;;;;;17.22;40.23;98888.22;4344314;33;35038;-84
2023/04/23 05:25:46;;;;;;;19.00;11.12;;;;;;;17.61;38.85;98893.59;4345105;32;34330;-94
2023/04/23 05:28:14;;;;;;;18.02;11.52;;;;;;;17.50;37.11;98885.94;4346264;33;32175;-95
2023/04/23 05:30:42;;;;;;;19.77;10.85;;;;;;;17.07;38.48;98883.25;4344687;33;34009;-83
2023/04/23 05:33:11;;;;;;;17.05;11.05;;;;;;;17.13;38.06;98885.78;4342523;32;33648;-87
2023/04/23 05:35:39;;;;;;;16.98;11.95;;;;;;;17.55;38.42;98894.59;4347628;33;33292;-97
2023/04/23 05:38:07;;;;;;;18.98;9.48;;;;;;;17.35;39.92;98896.72;4345766;33;33313;-95
2023/04/23 05:40:35;;;;;;;14.70;9.48;;;;;;;17.12;37.68;98892.78;4332197;33;34125;-85
2023/04/23 05:43:02;;;;;;;13.85;9.98;;;;;;;16.27;37.69;98887.16;4346483;33;34038;-82
2023/04/23 05:45:30;;;;;;;14.48;9.32;;;;;;;16.52;38.88;98890.28;4346491;33;33696;-94
2023/04/23 05:47:58;;;;;;;14.07;9.15;;;;;;;16.43;37.88;98887.78;4344052;32;33435;-90
2023/04/23 05:50:26;;;;;;;13.85;9.43;;;;;;;16.41;37.87;98892.19;4346397;33;33818;-89
2023/04/23 05:52:54;;;;;;;14.57;8.50;;;;;;;16.29;38.10;98891.50;4341947;33;34120;-93
2023/04/23 05:55:22;;;;;;;12.70;8.65;;;;;;;16.54;37.12;98885.88;4343910;33;33981;-94
2023/04/23 05:57:50;;;;;;;14.73;8.88;;;;;;;16.33;37.47;98892.31;4345744;33;33527;-94
2023/04/23 06:00:17;;;;;;;15.88;9.15;;;;;;;15.88;38.30;98894.69;4346156;33;33927;-90
2023/04/23 06:02:46;;;;;;;13.50;8.95;;;;;;;16.32;38.02;98895.78;4344687;33;35011;-91
2023/04/23 06:05:15;;;;;;;12.20;7.95;;;;;;;16.12;38.93;98900.44;4333694;33;33979;-92
2023/04/23 06:07:43;;;;;;;13.38;8.75;;;;;;;15.96;39.61;98891.97;4346750;33;34595;-84
2023/04/23 06:10:11;;;;;;;14.32;8.90;;;;;;;15.95;38.50;98903.31;4343931;33;33600;-92
2023/04/23 06:12:40;;;;;;;14.63;9.10;;;;;;;16.03;38.86;98899.69;4345611;33;34657;-92
2023/04/23 06:15:10;;;;;;;12.45;8.35;;;;;;;16.32;37.70;98906.25;4345890;33;33978;-91
2023/04/23 06:17:37;;;;;;;13.27;8.43;;;;;;;16.50;37.87;98900.75;4346460;33;34271;-93
2023/04/23 06:20:06;;;;;;;13.07;7.80;;;;;;;16.62;37.71;98904.06;4346413;33;33681;-94
2023/04/23 06:22:33;;;;;;;10.50;7.95;;;;;;;16.22;38.60;98904.69;4333305;33;34928;-90
2023/04/23 06:25:01;;;;;;;14.38;8.38;;;;;;;16.17;37.99;98904.72;4346375;33;34583;-84
2023/04/23 06:27:29;;;;;;;13.32;7.85;;;;;;;16.18;38.84;98910.84;4340981;32;33480;-85
2023/04/23 06:29:58;;;;;;;13.65;8.02;;;;;;;16.39;38.12;98904.41;4346589;33;33960;-92
2023/04/23 06:32:25;;;;;;;14.32;7.65;;;;;;;16.20;37.54;98902.06;4346177;33;34997;-83
2023/04/23 06:34:53;;;;;;;12.20;7.72;;;;;;;16.64;37.29;98907.53;4346262;33;34142;-83
2023/04/23 06:37:30;;;;;;;12.43;8.13;;;;;;;16.72;37.45;98901.28;4337696;33;33612;-83
2023/04/23 06:39:58;;;;;;;10.60;7.28;;;;;;;16.83;36.40;98901.13;4333184;33;34825;-92
2023/04/23 06:42:26;;;;;;;13.90;8.25;;;;;;;17.11;37.42;98912.00;4346014;33;34882;-89
2023/04/23 06:44:55;;;;;;;11.52;7.28;;;;;;;17.29;35.09;98912.56;4345809;33;33941;-85
2023/04/23 06:47:23;;;;;;;12.55;7.68;;;;;;;16.92;36.39;98908.81;4345404;33;33421;-85
2023/04/23 06:49:51;;;;;;;13.98;8.02;;;;;;;16.87;35.97;98909.81;4345802;33;34069;-93
2023/04/23 06:52:18;;;;;;;10.68;7.07;;;;;;;17.37;36.40;98911.53;4345203;33;34795;-92
2023/04/23 06:54:46;;;;;;;11.55;7.05;;;;;;;17.81;35.29;98912.44;4346305;33;34923;-91
2023/04/23 06:57:13;;;;;;;12.80;6.78;;;;;;;17.71;34.41;98906.47;4343262;33;102364;-93
2023/04/23 06:59:41;;;;;;;13.90;7.53;;;;;;;17.89;34.55;98901.81;4332158;33;33352;-93
2023/04/23 07:02:08;;;;;;;12.63;6.65;;;;;;;18.15;33.37;98898.63;4345993;33;34193;-84
2023/04/23 07:04:36;;;;;;;12.88;6.97;;;;;;;18.33;33.32;98889.44;4345847;33;34221;-86
2023/04/23 07:07:04;;;;;;;13.93;8.13;;;;;;;18.61;33.11;98898.41;4347442;33;33594;-93
2023/04/23 07:09:32;;;;;;;14.43;8.63;;;;;;;18.65;33.79;98897.44;4348665;33;33653;-82
2023/04/23 07:12:00;;;;;;;13.45;7.47;;;;;;;18.29;32.93;98899.16;4349888;33;34034;-92
2023/04/23 07:14:28;;;;;;;15.77;8.07;;;;;;;18.81;31.85;98895.31;4349179;33;33977;-86
2023/04/23 07:16:55;;;;;;;16.87;9.25;;;;;;;18.99;31.67;98891.38;4348520;33;33569;-95
2023/04/23 07:19:24;;;;;;;17.08;8.65;;;;;;;19.27;32.33;98895.91;4350339;33;34652;-85
2023/04/23 07:21:52;;;;;;;17.12;10.93;;;;;;;19.31;30.93;98890.50;4337858;33;34253;-96
2023/04/23 07:24:20;;;;;;;20.12;10.00;;;;;;;19.21;31.96;98886.41;4349686;33;33746;-88
2023/04/23 07:26:47;;;;;;;17.85;10.05;;;;;;;19.26;33.04;98884.53;4348438;33;33216;-85
2023/04/23 07:29:15;;;;;;;16.52;8.85;;;;;;;19.21;32.50;98894.31;4337140;33;33890;-93
2023/04/23 07:31:43;;;;;;;16.23;8.80;;;;;;;18.95;33.00;98894.97;4351123;33;33817;-87
2023/04/23 07:34:15;;;;;;;14.15;8.82;;;;;;;19.17;32.72;98890.91;4348756;33;34228;-92
2023/04/23 07:36:43;;;;;;;32.22;7.53;;;;;;;19.43;32.51;98895.44;4348643;33;33062;-95
2023/04/23 07:39:10;;;;;;;14.45;7.75;;;;;;;19.57;31.54;98889.78;4348513;33;34127;-94
2023/04/23 07:41:38;;;;;;;13.73;6.97;;;;;;;19.59;32.13;98887.13;4348282;33;34204;-96
2023/04/23 07:44:08;;;;;;;9.52;6.43;;;;;;;19.87;31.67;98885.44;4342088;32;34398;-95
2023/04/23 07:46:36;;;;;;;11.93;6.82;;;;;;;20.00;30.71;98882.44;4342817;33;33687;-94
2023/04/23 07:49:03;;;;;;;9.82;6.18;;;;;;;19.76;31.06;98889.31;4343143;33;33957;-89
2023/04/23 07:51:31;;;;;;;14.00;6.68;;;;;;;20.37;30.66;98890.94;4345133;33;34990;-94
2023/04/23 07:53:58;;;;;;;15.23;6.70;;;;;;;20.55;30.44;98893.94;4327592;33;33454;-96
2023/04/23 07:56:26;;;;;;;9.07;5.93;;;;;;;20.78;30.15;98895.84;4345032;33;33830;-93
2023/04/23 07:58:55;;;;;;;11.82;6.97;;;;;;;20.84;30.81;98893.88;4334060;33;33723;-93
2023/04/23 08:01:23;;;;;;;10.75;6.78;;;;;;;20.08;30.69;98893.63;4348379;33;34257;-90
2023/04/23 08:03:51;;;;;;;10.70;6.05;;;;;;;20.57;30.27;98885.09;4334379;33;33700;-85
2023/04/23 08:06:19;;;;;;;13.55;6.97;;;;;;;20.78;28.71;98887.94;4335362;33;33330;-95
2023/04/23 08:08:46;;;;;;;10.40;6.50;;;;;;;20.82;28.76;98882.50;4349671;33;34041;-96
2023/04/23 08:11:14;;;;;;;11.55;6.28;;;;;;;20.40;29.23;98882.09;4335620;33;33763;-88
2023/04/23 08:13:41;;;;;;;13.55;7.37;;;;;;;20.56;30.16;98882.50;4360245;32;34771;-94
2023/04/23 08:16:10;;;;;;;12.68;6.37;;;;;;;20.56;30.17;98890.41;4356966;33;33451;-86
2023/04/23 08:18:38;;;;;;;11.93;6.43;;;;;;;20.16;30.58;98881.09;4354916;33;34620;-85
2023/04/23 08:21:06;;;;;;;12.85;5.87;;;;;;;20.71;30.45;98886.41;4350161;33;34539;-88
2023/04/23 08:23:33;;;;;;;16.35;7.07;;;;;;;20.89;30.24;98880.53;4348824;33;34060;-95
2023/04/23 08:26:01;;;;;;;12.90;6.80;;;;;;;21.32;28.86;98879.87;4351603;33;33557;-92
2023/04/23 08:28:29;;;;;;;13.55;9.25;;;;;;;21.29;29.76;98877.38;4348518;33;33449;-92
2023/04/23 08:30:57;;;;;;;16.73;10.10;;;;;;;20.30;30.96;98881.50;4350269;33;33810;-86
2023/04/23 08:33:25;;;;;;;13.52;8.70;;;;;;;20.09;31.51;98890.94;4348590;33;34362;-96
2023/04/23 08:35:52;;;;;;;14.32;9.18;;;;;;;20.40;31.40;98877.69;4354045;33;34574;-94
2023/04/23 08:38:20;;;;;;;14.77;9.13;;;;;;;20.52;31.53;98878.25;4349063;33;34121;-90
2023/04/23 08:40:48;;;;;;;13.32;8.30;;;;;;;20.49;31.14;98879.19;4348127;33;34066;-84
2023/04/23 08:43:18;;;;;;;13.52;8.60;;;;;;;20.29;31.17;98877.16;4338313;33;34230;-85
2023/04/23 08:45:47;;;;;;;13.95;8.10;;;;;;;20.45;31.07;98881.94;4338176;33;33618;-96
2023/04/23 08:48:15;;;;;;;10.88;7.78;;;;;;;20.53;30.50;98878.22;4349106;33;33821;-85
2023/04/23 08:50:43;;;;;;;14.23;7.62;;;;;;;21.13;30.90;98869.12;4337220;33;35406;-84
2023/04/23 08:53:17;;;;;;;11.70;6.57;;;;;;;21.31;30.27;98866.78;4348545;33;34296;-92
2023/04/23 08:55:46;;;;;;;12.55;6.55;;;;;;;20.79;30.17;98874.69;4335605;33;33315;-95
2023/04/23 08:58:14;;;;;;;16.77;6.78;;;;;;;20.75;29.73;98870.44;4335376;33;34840;-86
2023/04/23 09:00:42;;;;;;;11.00;6.15;;;;;;;20.81;28.39;98867.63;4335638;33;34813;-91
2023/04/23 09:03:10;;;;;;;13.05;6.25;;;;;;;20.55;31.62;98871.09;4352742;33;33930;-96
2023/04/23 09:05:38;;;;;;;13.25;6.22;;;;;;;20.95;30.28;98868.91;4338491;33;33555;-93
2023/04/23 09:08:07;;;;;;;10.98;6.22;;;;;;;21.41;29.13;98862.06;4353644;33;34623;-94
2023/04/23 09:10:36;;;;;;;10.63;6.43;;;;;;;21.12;30.66;98856.88;4334861;33;34236;-84
2023/04/23 09:13:04;;;;;;;11.23;6.20;;;;;;;20.87;29.40;98862.16;4334735;33;34743;-94
2023/04/23 09:15:31;;;;;;;8.45;6.00;;;;;;;21.80;28.89;98850.03;4348593;33;33453;-96
2023/04/23 09:17:59;;;;;;;10.05;5.37;;;;;;;21.44;29.03;98856.66;4350009;33;34397;-85
2023/04/23 09:20:27;;;;;;;13.88;5.32;;;;;;;21.53;28.88;98859.84;4335411;33;34962;-96
2023/04/23 09:22:54;;;;;;;10.80;5.93;;;;;;;21.85;27.26;98847.22;4349143;33;34430;-94
2023/04/23 09:25:23;;;;;;;9.82;5.28;;;;;;;21.60;27.04;98849.94;4349819;33;33980;-85
2023/04/23 09:27:51;;;;;;;8.98;5.30;;;;;;;21.02;28.11;98850.19;4350663;33;33538;-84
2023/04/23 09:30:19;;;;;;;7.93;4.80;;;;;;;21.52;27.96;98846.72;4335737;33;34058;-92
2023/04/23 09:32:48;;;;;;;12.70;5.30;;;;;;;21.42;28.12;98848.81;4350973;33;34918;-95
2023/04/23 09:35:18;;;;;;;9.63;5.07;;;;;;;21.80;27.21;98849.19;4348648;33;32883;-85
2023/04/23 09:37:51;;;;;;;8.30;4.80;;;;;;;22.61;26.86;98842.47;4353495;33;34380;-84
2023/04/23 09:40:22;;;;;;;9.15;5.32;;;;;;;22.68;26.53;98839.53;4339908;33;34563;-84
2023/04/23 09:42:54;;;;;;;9.43;4.55;;;;;;;22.66;24.76;98851.09;4351176;32;34133;-87
2023/04/23 09:45:25;;;;;;;9.50;5.53;;;;;;;22.81;26.51;98834.59;4354609;33;33143;-85
2023/04/23 09:47:55;;;;;;;10.45;4.80;;;;;;;22.67;24.83;98844.88;4354379;33;33850;-83
2023/04/23 09:50:34;;;;;;;8.93;4.05;;;;;;;22.31;26.46;98834.87;4341512;33;34276;-84
2023/04/23 09:53:06;;;;;;;8.93;4.55;;;;;;;22.44;25.54;98835.25;4357155;32;34229;-83
2023/04/23 09:55:37;;;;;;;7.87;4.12;;;;;;;22.79;24.71;98839.94;4352794;33;33410;-84
2023/04/23 09:58:10;;;;;;;9.57;4.00;;;;;;;23.11;25.82;98844.78;4347530;33;34311;-85
2023/04/23 10:00:38;;;;;;;9.13;4.37;;;;;;;22.89;24.75;98829.84;4351941;33;34217;-85
2023/04/23 10:03:07;;;;;;;8.52;4.62;;;;;;;23.23;25.37;98826.63;4350768;33;34152;-84
2023/04/23 10:05:42;;;;;;;8.93;4.00;;;;;;;22.86;24.51;98821.19;4337115;33;33500;-83
2023/04/23 10:08:14;;;;;;;8.30;4.18;;;;;;;23.26;25.90;98821.19;4334112;33;33536;-83
2023/04/23 10:10:43;;;;;;;8.13;4.87;;;;;;;23.02;25.17;98822.25;4336865;33;35240;-88
2023/04/23 10:13:31;;;;;;;9.43;4.68;;;;;;;23.14;24.90;98823.50;4332168;33;33912;-84
2023/04/23 10:16:00;;;;;;;8.30;4.60;;;;;;;22.46;24.80;98799.91;4341835;33;34544;-93
2023/04/23 10:18:45;;;;;;;7.55;3.97;;;;;;;22.53;26.02;98808.44;4338511;33;33538;-86
2023/04/23 10:21:13;;;;;;;7.55;3.80;;;;;;;21.86;25.56;98806.72;4340398;33;33764;-83
2023/04/23 10:23:43;;;;;;;6.60;3.60;;;;;;;22.47;25.11;98806.94;4341319;33;33544;-94
2023/04/23 10:26:13;;;;;;;7.18;4.62;;;;;;;22.70;23.67;98799.84;4354641;33;33742;-95
2023/04/23 10:28:45;;;;;;;5.85;3.30;;;;;;;22.56;24.36;98797.75;4339583;33;34108;-85
2023/04/23 10:31:13;;;;;;;6.68;3.97;;;;;;;22.24;21.73;98792.03;4354400;33;35206;-84
2023/04/23 10:33:42;;;;;;;7.95;3.28;;;;;;;22.64;20.38;98800.94;4336161;33;34889;-91
2023/04/23 10:36:26;;;;;;;7.93;3.28;;;;;;;22.44;21.65;98793.00;4352287;33;33610;-96
2023/04/23 10:38:58;;;;;;;7.05;3.33;;;;;;;22.82;20.83;98779.00;4343021;33;33788;-89
2023/04/23 10:41:33;;;;;;;9.23;4.10;;;;;;;23.26;22.22;98791.22;4327130;33;33714;-92
2023/04/23 10:44:02;;;;;;;8.18;3.45;;;;;;;23.54;21.44;98789.06;4325348;33;35004;-93
2023/04/23 10:46:31;;;;;;;8.20;3.47;;;;;;;23.81;22.76;98785.22;4348104;33;33596;-95
2023/04/23 10:49:15;;;;;;;5.68;3.20;;;;;;;23.78;23.47;98771.19;4348810;33;35250;-93
2023/04/23 10:51:45;;;;;;;6.82;3.20;;;;;;;23.86;22.32;98773.47;4321476;33;33594;-87
2023/04/23 10:54:18;;;;;;;6.82;3.33;;;;;;;24.18;21.64;98771.94;4335568;33;34727;-83
2023/04/23 10:56:57;;;;;;;6.25;2.90;;;;;;;23.73;19.86;98775.00;4347704;33;33121;-82
2023/04/23 10:59:25;;;;;;;5.40;2.95;;;;;;;23.78;20.35;98768.53;4333239;33;34078;-91
2023/04/23 11:01:56;;;;;;;6.05;2.97;;;;;;;23.67;19.99;98757.59;4350174;33;34037;-82
2023/04/23 11:04:28;;;;;;;7.40;3.25;;;;;;;23.19;20.26;98771.28;4333829;33;34638;-85
2023/04/23 11:07:04;;;;;;;51.28;39.53;;;;;;;23.20;19.06;98778.28;4332546;33;34433;-83
2023/04/23 11:09:37;;;;;;;4.13;2.40;;;;;;;23.73;19.66;98775.84;4321606;33;33912;-82
2023/04/23 11:12:27;;;;;;;5.47;2.33;;;;;;;23.81;18.19;98769.34;4350260;32;34380;-95
2023/04/23 11:14:55;;;;;;;7.50;3.00;;;;;;;23.45;17.97;98776.25;4331323;33;35061;-96
2023/04/23 11:17:23;;;;;;;7.20;2.97;;;;;;;23.08;18.32;98769.13;4332757;33;33600;-93
2023/04/23 11:20:05;;;;;;;4.90;2.90;;;;;;;23.66;19.02;98773.53;4343821;33;33243;-89
2023/04/23 11:22:38;;;;;;;8.75;2.90;;;;;;;23.36;19.56;98774.00;4347968;33;34038;-82
2023/04/23 11:25:10;;;;;;;6.80;3.35;;;;;;;23.27;19.31;98770.00;4344696;33;33535;-96
2023/04/23 11:27:44;;;;;;;7.45;2.45;;;;;;;23.47;19.62;98777.03;4319947;33;33359;-82
2023/04/23 11:30:14;;;;;;;7.30;2.62;;;;;;;23.15;18.55;98775.00;4340858;33;34008;-79
2023/04/23 11:32:49;;;;;;;6.45;2.78;;;;;;;23.12;19.85;98764.56;4334891;33;35031;-82